sensor_id;sensor_type;location;lat;lon;timestamp;temperature;humidity
10911;DHT22;5508;49.150;11.030;2022-09-01T00:01:47;15.00;99.90
10911;DHT22;5508;49.150;11.030;2022-09-01T00:04:48;15.00;99.90
10911;DHT22;5508;49.150;11.030;2022-09-01T00:07:48;15.00;99.90
10911;DHT22;5508;49.150;11.030;2022-09-01T00:10:49;15.00;99.90
10911;DHT22;5508;49.150;11.030;2022-09-01T00:13:50;15.00;99.90
10911;DHT22;5508;49.150;11.030;2022-09-01T00:16:52;15.00;99.90
10911;DHT22;5508;49.150;11.030;2022-09-01T00:19:53;15.00;99.90
10911;DHT22;5508;49.150;11.030;2022-09-01T00:22:53;15.00;99.90
10911;DHT22;5508;49.150;11.030;2022-09-01T00:25:54;15.00;99.90
10911;DHT22;5508;49.150;11.030;2022-09-01T00:28:55;14.90;99.90
10911;DHT22;5508;49.150;11.030;2022-09-01T00:31:56;14.90;99.90
10911;DHT22;5508;49.150;11.030;2022-09-01T00:34:56;14.80;99.90
10911;DHT22;5508;49.150;11.030;2022-09-01T00:37:57;14.90;99.90
10911;DHT22;5508;49.150;11.030;2022-09-01T00:40:57;14.90;99.90
10911;DHT22;5508;49.150;11.030;2022-09-01T00:44:03;14.80;99.90
10911;DHT22;5508;49.150;11.030;2022-09-01T00:47:04;14.80;99.90
10911;DHT22;5508;49.150;11.030;2022-09-01T00:50:07;14.80;99.90
10911;DHT22;5508;49.150;11.030;2022-09-01T00:53:09;14.80;99.90
10911;DHT22;5508;49.150;11.030;2022-09-01T00:56:10;14.70;99.90
10911;DHT22;5508;49.150;11.030;2022-09-01T00:59:11;14.60;99.90
10911;DHT22;5508;49.150;11.030;2022-09-01T01:02:12;14.50;99.90
10911;DHT22;5508;49.150;11.030;2022-09-01T01:05:13;14.40;99.90
10911;DHT22;5508;49.150;11.030;2022-09-01T01:08:14;14.40;99.90
10911;DHT22;5508;49.150;11.030;2022-09-01T01:11:19;14.40;99.90
10911;DHT22;5508;49.150;11.030;2022-09-01T01:14:20;14.40;99.90
10911;DHT22;5508;49.150;11.030;2022-09-01T01:17:21;14.40;99.90
10911;DHT22;5508;49.150;11.030;2022-09-01T01:20:25;14.50;99.90
10911;DHT22;5508;49.150;11.030;2022-09-01T01:24:05;14.40;99.90
10911;DHT22;5508;49.150;11.030;2022-09-01T01:27:08;14.40;99.90
10911;DHT22;5508;49.150;11.030;2022-09-01T01:30:11;14.50;99.90
10911;DHT22;5508;49.150;11.030;2022-09-01T01:33:12;14.40;99.90
10911;DHT22;5508;49.150;11.030;2022-09-01T01:36:25;14.40;99.90
10911;DHT22;5508;49.150;11.030;2022-09-01T01:39:31;14.40;99.90
10911;DHT22;5508;49.150;11.030;2022-09-01T01:42:32;14.40;99.90
10911;DHT22;5508;49.150;11.030;2022-09-01T01:45:33;14.30;99.90
10911;DHT22;5508;49.150;11.030;2022-09-01T01:48:36;14.30;99.90
10911;DHT22;5508;49.150;11.030;2022-09-01T01:51:39;14.20;99.90
10911;DHT22;5508;49.150;11.030;2022-09-01T01:54:40;14.10;99.90
10911;DHT22;5508;49.150;11.030;2022-09-01T01:57:41;14.00;99.90
10911;DHT22;5508;49.150;11.030;2022-09-01T02:00:49;13.80;99.90
10911;DHT22;5508;49.150;11.030;2022-09-01T02:03:50;13.80;99.90
10911;DHT22;5508;49.150;11.030;2022-09-01T02:06:54;13.70;99.90
10911;DHT22;5508;49.150;11.030;2022-09-01T02:09:55;13.60;99.90
10911;DHT22;5508;49.150;11.030;2022-09-01T02:12:58;13.60;99.90
10911;DHT22;5508;49.150;11.030;2022-09-01T02:16:07;13.60;99.90
10911;DHT22;5508;49.150;11.030;2022-09-01T02:19:12;13.50;99.90
10911;DHT22;5508;49.150;11.030;2022-09-01T02:22:12;13.40;99.90
10911;DHT22;5508;49.150;11.030;2022-09-01T02:25:13;13.40;99.90
10911;DHT22;5508;49.150;11.030;2022-09-01T02:28:17;13.40;99.90
10911;DHT22;5508;49.150;11.030;2022-09-01T02:31:19;13.40;99.90
10911;DHT22;5508;49.150;11.030;2022-09-01T02:34:21;13.40;99.90
10911;DHT22;5508;49.150;11.030;2022-09-01T02:37:23;13.50;99.90
10911;DHT22;5508;49.150;11.030;2022-09-01T02:40:24;13.50;99.90
10911;DHT22;5508;49.150;11.030;2022-09-01T02:43:25;13.50;99.90
10911;DHT22;5508;49.150;11.030;2022-09-01T02:46:28;13.50;99.90
10911;DHT22;5508;49.150;11.030;2022-09-01T02:49:29;13.50;99.90
10911;DHT22;5508;49.150;11.030;2022-09-01T02:52:30;13.50;99.90
10911;DHT22;5508;49.150;11.030;2022-09-01T02:55:37;13.40;99.90
10911;DHT22;5508;49.150;11.030;2022-09-01T02:58:40;13.30;99.90
10911;DHT22;5508;49.150;11.030;2022-09-01T03:01:45;13.20;99.90
10911;DHT22;5508;49.150;11.030;2022-09-01T03:04:46;13.20;99.90
10911;DHT22;5508;49.150;11.030;2022-09-01T03:07:52;13.20;99.90
10911;DHT22;5508;49.150;11.030;2022-09-01T03:10:55;13.20;99.90
10911;DHT22;5508;49.150;11.030;2022-09-01T03:13:59;13.20;99.90
10911;DHT22;5508;49.150;11.030;2022-09-01T03:16:59;13.20;99.90
10911;DHT22;5508;49.150;11.030;2022-09-01T03:20:00;13.20;99.90
10911;DHT22;5508;49.150;11.030;2022-09-01T03:23:03;13.10;99.90
10911;DHT22;5508;49.150;11.030;2022-09-01T03:26:07;13.10;99.90
10911;DHT22;5508;49.150;11.030;2022-09-01T03:29:08;13.00;99.90
10911;DHT22;5508;49.150;11.030;2022-09-01T03:32:08;13.00;99.90
10911;DHT22;5508;49.150;11.030;2022-09-01T03:35:09;12.90;99.90
10911;DHT22;5508;49.150;11.030;2022-09-01T03:38:11;12.90;99.90
10911;DHT22;5508;49.150;11.030;2022-09-01T03:41:23;12.80;99.90
10911;DHT22;5508;49.150;11.030;2022-09-01T03:44:24;12.80;99.90
10911;DHT22;5508;49.150;11.030;2022-09-01T03:47:24;12.80;99.90
10911;DHT22;5508;49.150;11.030;2022-09-01T03:50:26;12.60;99.90
10911;DHT22;5508;49.150;11.030;2022-09-01T03:53:30;12.60;99.90
10911;DHT22;5508;49.150;11.030;2022-09-01T03:56:31;12.50;99.90
10911;DHT22;5508;49.150;11.030;2022-09-01T03:59:33;12.50;99.90
10911;DHT22;5508;49.150;11.030;2022-09-01T04:02:34;12.40;99.90
10911;DHT22;5508;49.150;11.030;2022-09-01T04:05:35;12.40;99.90
10911;DHT22;5508;49.150;11.030;2022-09-01T04:08:37;12.40;99.90
10911;DHT22;5508;49.150;11.030;2022-09-01T04:11:38;12.40;99.90
10911;DHT22;5508;49.150;11.030;2022-09-01T04:14:41;12.40;99.90
10911;DHT22;5508;49.150;11.030;2022-09-01T04:17:45;12.40;99.90
10911;DHT22;5508;49.150;11.030;2022-09-01T04:21:09;12.20;99.90
10911;DHT22;5508;49.150;11.030;2022-09-01T04:24:10;12.20;99.90
10911;DHT22;5508;49.150;11.030;2022-09-01T04:27:14;12.10;99.90
10911;DHT22;5508;49.150;11.030;2022-09-01T04:30:15;12.00;99.90
10911;DHT22;5508;49.150;11.030;2022-09-01T04:33:16;12.00;99.90
10911;DHT22;5508;49.150;11.030;2022-09-01T04:36:26;12.00;99.90
10911;DHT22;5508;49.150;11.030;2022-09-01T04:39:30;12.10;99.90
10911;DHT22;5508;49.150;11.030;2022-09-01T04:42:30;12.20;99.90
10911;DHT22;5508;49.150;11.030;2022-09-01T04:45:34;12.30;99.90
10911;DHT22;5508;49.150;11.030;2022-09-01T04:48:35;12.40;99.90
10911;DHT22;5508;49.150;11.030;2022-09-01T04:51:45;12.50;99.90
10911;DHT22;5508;49.150;11.030;2022-09-01T04:54:46;12.60;99.90
10911;DHT22;5508;49.150;11.030;2022-09-01T04:57:48;12.60;99.90
10911;DHT22;5508;49.150;11.030;2022-09-01T05:00:49;12.60;99.90
10911;DHT22;5508;49.150;11.030;2022-09-01T05:03:52;12.60;99.90
10911;DHT22;5508;49.150;11.030;2022-09-01T05:07:01;12.60;99.90
10911;DHT22;5508;49.150;11.030;2022-09-01T05:10:03;12.70;99.90
10911;DHT22;5508;49.150;11.030;2022-09-01T05:13:03;12.70;99.90
10911;DHT22;5508;49.150;11.030;2022-09-01T05:16:11;12.80;99.90
10911;DHT22;5508;49.150;11.030;2022-09-01T05:19:16;12.80;99.90
10911;DHT22;5508;49.150;11.030;2022-09-01T05:22:20;12.80;99.90
10911;DHT22;5508;49.150;11.030;2022-09-01T05:25:21;12.80;99.90
10911;DHT22;5508;49.150;11.030;2022-09-01T05:28:22;12.80;99.90
10911;DHT22;5508;49.150;11.030;2022-09-01T05:31:27;12.90;99.90
10911;DHT22;5508;49.150;11.030;2022-09-01T05:34:37;13.00;99.90
10911;DHT22;5508;49.150;11.030;2022-09-01T05:37:39;13.10;99.90
10911;DHT22;5508;49.150;11.030;2022-09-01T05:40:42;13.10;99.90
10911;DHT22;5508;49.150;11.030;2022-09-01T05:43:44;13.30;99.90
10911;DHT22;5508;49.150;11.030;2022-09-01T05:46:51;13.30;99.90
10911;DHT22;5508;49.150;11.030;2022-09-01T05:49:52;13.40;99.90
10911;DHT22;5508;49.150;11.030;2022-09-01T05:52:53;13.50;99.90
10911;DHT22;5508;49.150;11.030;2022-09-01T05:55:55;13.50;99.90
10911;DHT22;5508;49.150;11.030;2022-09-01T05:58:59;13.60;99.90
10911;DHT22;5508;49.150;11.030;2022-09-01T06:02:01;13.70;99.90
10911;DHT22;5508;49.150;11.030;2022-09-01T06:05:02;13.70;99.90
10911;DHT22;5508;49.150;11.030;2022-09-01T06:08:05;13.80;99.90
10911;DHT22;5508;49.150;11.030;2022-09-01T06:11:07;13.80;99.90
10911;DHT22;5508;49.150;11.030;2022-09-01T06:14:14;13.90;99.90
10911;DHT22;5508;49.150;11.030;2022-09-01T06:17:17;13.90;99.90
10911;DHT22;5508;49.150;11.030;2022-09-01T06:20:22;14.00;99.90
10911;DHT22;5508;49.150;11.030;2022-09-01T06:23:22;14.10;99.90
10911;DHT22;5508;49.150;11.030;2022-09-01T06:26:29;14.10;99.90
10911;DHT22;5508;49.150;11.030;2022-09-01T06:29:29;14.10;99.90
10911;DHT22;5508;49.150;11.030;2022-09-01T06:32:30;14.00;99.90
10911;DHT22;5508;49.150;11.030;2022-09-01T06:35:35;14.10;99.90
10911;DHT22;5508;49.150;11.030;2022-09-01T06:38:37;14.20;99.90
10911;DHT22;5508;49.150;11.030;2022-09-01T06:41:38;14.30;99.90
10911;DHT22;5508;49.150;11.030;2022-09-01T06:44:39;14.40;99.90
10911;DHT22;5508;49.150;11.030;2022-09-01T06:47:41;14.50;99.90
10911;DHT22;5508;49.150;11.030;2022-09-01T06:50:44;14.50;99.90
10911;DHT22;5508;49.150;11.030;2022-09-01T06:53:47;14.60;99.90
10911;DHT22;5508;49.150;11.030;2022-09-01T06:56:52;14.60;99.90
10911;DHT22;5508;49.150;11.030;2022-09-01T06:59:53;14.70;99.90
10911;DHT22;5508;49.150;11.030;2022-09-01T07:02:55;14.80;99.90
10911;DHT22;5508;49.150;11.030;2022-09-01T07:05:56;14.90;99.90
10911;DHT22;5508;49.150;11.030;2022-09-01T07:08:59;15.00;99.90
10911;DHT22;5508;49.150;11.030;2022-09-01T07:12:01;15.10;99.90
10911;DHT22;5508;49.150;11.030;2022-09-01T07:15:03;15.30;99.90
10911;DHT22;5508;49.150;11.030;2022-09-01T07:18:04;15.60;99.90
10911;DHT22;5508;49.150;11.030;2022-09-01T07:21:06;15.80;99.90
10911;DHT22;5508;49.150;11.030;2022-09-01T07:24:07;16.00;99.00
10911;DHT22;5508;49.150;11.030;2022-09-01T07:27:07;16.20;97.20
10911;DHT22;5508;49.150;11.030;2022-09-01T07:30:08;16.30;94.40
10911;DHT22;5508;49.150;11.030;2022-09-01T07:33:11;16.40;94.30
10911;DHT22;5508;49.150;11.030;2022-09-01T07:36:12;16.50;92.70
10911;DHT22;5508;49.150;11.030;2022-09-01T07:39:13;16.70;91.70
10911;DHT22;5508;49.150;11.030;2022-09-01T07:42:16;16.90;91.40
10911;DHT22;5508;49.150;11.030;2022-09-01T07:45:17;17.10;89.70
10911;DHT22;5508;49.150;11.030;2022-09-01T07:48:19;17.00;88.50
10911;DHT22;5508;49.150;11.030;2022-09-01T07:51:21;16.90;89.50
10911;DHT22;5508;49.150;11.030;2022-09-01T07:54:22;17.30;88.80
10911;DHT22;5508;49.150;11.030;2022-09-01T07:57:24;17.70;87.40
10911;DHT22;5508;49.150;11.030;2022-09-01T08:00:25;18.10;85.30
10911;DHT22;5508;49.150;11.030;2022-09-01T08:03:29;18.20;83.40
10911;DHT22;5508;49.150;11.030;2022-09-01T08:06:29;18.30;82.90
10911;DHT22;5508;49.150;11.030;2022-09-01T08:09:30;18.30;82.40
10911;DHT22;5508;49.150;11.030;2022-09-01T08:12:30;18.30;80.50
10911;DHT22;5508;49.150;11.030;2022-09-01T08:15:31;18.30;81.00
10911;DHT22;5508;49.150;11.030;2022-09-01T08:18:32;18.20;81.70
10911;DHT22;5508;49.150;11.030;2022-09-01T08:21:32;18.10;80.30
10911;DHT22;5508;49.150;11.030;2022-09-01T08:24:33;17.90;80.40
10911;DHT22;5508;49.150;11.030;2022-09-01T08:27:35;18.00;81.10
10911;DHT22;5508;49.150;11.030;2022-09-01T08:30:40;18.00;81.20
10911;DHT22;5508;49.150;11.030;2022-09-01T08:33:41;18.00;81.90
10911;DHT22;5508;49.150;11.030;2022-09-01T08:36:42;18.10;79.80
10911;DHT22;5508;49.150;11.030;2022-09-01T08:39:42;18.20;81.70
10911;DHT22;5508;49.150;11.030;2022-09-01T08:42:48;18.50;79.50
10911;DHT22;5508;49.150;11.030;2022-09-01T08:45:53;18.60;79.40
10911;DHT22;5508;49.150;11.030;2022-09-01T08:48:57;18.90;78.60
10911;DHT22;5508;49.150;11.030;2022-09-01T08:52:05;19.10;75.30
10911;DHT22;5508;49.150;11.030;2022-09-01T08:55:18;19.10;76.30
10911;DHT22;5508;49.150;11.030;2022-09-01T08:58:22;19.20;73.90
10911;DHT22;5508;49.150;11.030;2022-09-01T09:01:33;19.10;75.40
10911;DHT22;5508;49.150;11.030;2022-09-01T09:04:42;19.10;74.20
10911;DHT22;5508;49.150;11.030;2022-09-01T09:08:16;18.90;74.90
10911;DHT22;5508;49.150;11.030;2022-09-01T09:17:49;19.20;73.30
10911;DHT22;5508;49.150;11.030;2022-09-01T09:20:52;19.20;73.30
10911;DHT22;5508;49.150;11.030;2022-09-01T09:27:03;19.10;75.10
10911;DHT22;5508;49.150;11.030;2022-09-01T09:30:12;19.20;75.10
10911;DHT22;5508;49.150;11.030;2022-09-01T09:33:35;19.30;73.70
10911;DHT22;5508;49.150;11.030;2022-09-01T09:36:36;19.30;74.50
10911;DHT22;5508;49.150;11.030;2022-09-01T09:39:36;19.20;76.20
10911;DHT22;5508;49.150;11.030;2022-09-01T09:42:57;19.40;74.10
10911;DHT22;5508;49.150;11.030;2022-09-01T09:49:31;19.60;71.20
10911;DHT22;5508;49.150;11.030;2022-09-01T09:52:32;19.50;71.20
10911;DHT22;5508;49.150;11.030;2022-09-01T09:55:33;19.40;74.50
10911;DHT22;5508;49.150;11.030;2022-09-01T09:58:38;19.60;72.80
10911;DHT22;5508;49.150;11.030;2022-09-01T10:01:39;19.70;72.20
10911;DHT22;5508;49.150;11.030;2022-09-01T10:04:41;19.80;70.90
10911;DHT22;5508;49.150;11.030;2022-09-01T10:07:41;19.90;70.90
10911;DHT22;5508;49.150;11.030;2022-09-01T10:10:45;19.90;69.10
10911;DHT22;5508;49.150;11.030;2022-09-01T10:13:46;19.80;69.60
10911;DHT22;5508;49.150;11.030;2022-09-01T10:16:57;19.80;69.20
10911;DHT22;5508;49.150;11.030;2022-09-01T10:20:05;19.60;71.50
10911;DHT22;5508;49.150;11.030;2022-09-01T10:23:09;19.80;71.40
10911;DHT22;5508;49.150;11.030;2022-09-01T10:26:23;20.00;71.00
10911;DHT22;5508;49.150;11.030;2022-09-01T10:29:35;20.20;69.50
10911;DHT22;5508;49.150;11.030;2022-09-01T10:32:44;20.40;71.00
10911;DHT22;5508;49.150;11.030;2022-09-01T10:35:48;20.60;68.20
10911;DHT22;5508;49.150;11.030;2022-09-01T10:38:50;21.00;65.50
10911;DHT22;5508;49.150;11.030;2022-09-01T10:41:53;20.90;65.00
10911;DHT22;5508;49.150;11.030;2022-09-01T10:44:57;21.30;67.00
10911;DHT22;5508;49.150;11.030;2022-09-01T10:54:54;21.70;56.70
10911;DHT22;5508;49.150;11.030;2022-09-01T10:58:20;21.10;58.30
10911;DHT22;5508;49.150;11.030;2022-09-01T11:07:41;21.30;60.80
10911;DHT22;5508;49.150;11.030;2022-09-01T11:10:59;21.40;57.50
10911;DHT22;5508;49.150;11.030;2022-09-01T11:14:01;21.60;57.00
10911;DHT22;5508;49.150;11.030;2022-09-01T11:17:18;21.60;56.30
10911;DHT22;5508;49.150;11.030;2022-09-01T11:23:30;21.90;55.50
10911;DHT22;5508;49.150;11.030;2022-09-01T11:29:58;21.70;57.70
10911;DHT22;5508;49.150;11.030;2022-09-01T11:33:17;22.00;56.40
10911;DHT22;5508;49.150;11.030;2022-09-01T11:39:35;22.30;55.00
10911;DHT22;5508;49.150;11.030;2022-09-01T11:42:40;22.40;55.50
10911;DHT22;5508;49.150;11.030;2022-09-01T11:48:56;22.10;52.20
10911;DHT22;5508;49.150;11.030;2022-09-01T11:51:58;22.10;52.40
10911;DHT22;5508;49.150;11.030;2022-09-01T11:55:00;22.00;51.60
10911;DHT22;5508;49.150;11.030;2022-09-01T11:58:02;21.60;53.30
10911;DHT22;5508;49.150;11.030;2022-09-01T12:04:32;22.00;53.30
10911;DHT22;5508;49.150;11.030;2022-09-01T12:07:44;22.10;52.60
10911;DHT22;5508;49.150;11.030;2022-09-01T12:10:46;22.30;51.70
10911;DHT22;5508;49.150;11.030;2022-09-01T12:14:00;22.10;52.70
10911;DHT22;5508;49.150;11.030;2022-09-01T12:17:03;22.20;51.90
10911;DHT22;5508;49.150;11.030;2022-09-01T12:23:32;22.40;55.50
10911;DHT22;5508;49.150;11.030;2022-09-01T12:26:33;22.30;51.70
10911;DHT22;5508;49.150;11.030;2022-09-01T12:29:34;22.30;51.70
10911;DHT22;5508;49.150;11.030;2022-09-01T12:32:36;22.10;52.50
10911;DHT22;5508;49.150;11.030;2022-09-01T12:35:37;22.00;52.50
10911;DHT22;5508;49.150;11.030;2022-09-01T12:38:38;22.00;52.80
10911;DHT22;5508;49.150;11.030;2022-09-01T12:41:39;22.00;52.50
10911;DHT22;5508;49.150;11.030;2022-09-01T12:50:47;22.30;52.40
10911;DHT22;5508;49.150;11.030;2022-09-01T12:53:57;22.40;53.30
10911;DHT22;5508;49.150;11.030;2022-09-01T12:56:58;22.30;52.70
10911;DHT22;5508;49.150;11.030;2022-09-01T13:03:15;22.40;52.90
10911;DHT22;5508;49.150;11.030;2022-09-01T13:06:17;22.20;53.50
10911;DHT22;5508;49.150;11.030;2022-09-01T13:09:18;22.00;52.50
10911;DHT22;5508;49.150;11.030;2022-09-01T13:12:20;21.60;55.50
10911;DHT22;5508;49.150;11.030;2022-09-01T13:15:20;21.30;54.20
10911;DHT22;5508;49.150;11.030;2022-09-01T13:18:26;21.40;55.40
10911;DHT22;5508;49.150;11.030;2022-09-01T13:21:28;21.20;52.90
10911;DHT22;5508;49.150;11.030;2022-09-01T13:24:29;21.00;55.30
10911;DHT22;5508;49.150;11.030;2022-09-01T13:27:30;20.90;53.40
10911;DHT22;5508;49.150;11.030;2022-09-01T13:30:31;20.80;55.90
10911;DHT22;5508;49.150;11.030;2022-09-01T13:33:33;20.90;57.20
10911;DHT22;5508;49.150;11.030;2022-09-01T13:36:34;21.10;53.20
10911;DHT22;5508;49.150;11.030;2022-09-01T13:39:35;21.20;55.10
10911;DHT22;5508;49.150;11.030;2022-09-01T13:42:35;21.20;51.50
10911;DHT22;5508;49.150;11.030;2022-09-01T13:45:36;21.20;55.20
10911;DHT22;5508;49.150;11.030;2022-09-01T13:48:37;21.30;56.10
10911;DHT22;5508;49.150;11.030;2022-09-01T13:51:38;21.30;55.50
10911;DHT22;5508;49.150;11.030;2022-09-01T13:54:39;21.50;55.60
10911;DHT22;5508;49.150;11.030;2022-09-01T13:57:40;21.60;53.70
10911;DHT22;5508;49.150;11.030;2022-09-01T14:00:43;21.70;55.60
10911;DHT22;5508;49.150;11.030;2022-09-01T14:03:44;21.80;52.20
10911;DHT22;5508;49.150;11.030;2022-09-01T14:06:45;21.90;52.90
10911;DHT22;5508;49.150;11.030;2022-09-01T14:09:45;22.10;53.40
10911;DHT22;5508;49.150;11.030;2022-09-01T14:12:46;22.00;55.10
10911;DHT22;5508;49.150;11.030;2022-09-01T14:15:48;21.90;52.20
10911;DHT22;5508;49.150;11.030;2022-09-01T14:18:48;22.10;52.20
10911;DHT22;5508;49.150;11.030;2022-09-01T14:21:49;22.20;51.90
10911;DHT22;5508;49.150;11.030;2022-09-01T14:24:50;22.20;51.00
10911;DHT22;5508;49.150;11.030;2022-09-01T14:27:51;22.20;51.60
10911;DHT22;5508;49.150;11.030;2022-09-01T14:30:52;22.10;47.40
10911;DHT22;5508;49.150;11.030;2022-09-01T14:33:53;21.70;48.50
10911;DHT22;5508;49.150;11.030;2022-09-01T14:36:55;21.70;52.00
10911;DHT22;5508;49.150;11.030;2022-09-01T14:39:59;21.60;51.80
10911;DHT22;5508;49.150;11.030;2022-09-01T14:42:59;21.50;53.00
10911;DHT22;5508;49.150;11.030;2022-09-01T14:46:05;21.30;52.20
10911;DHT22;5508;49.150;11.030;2022-09-01T14:49:06;21.30;50.70
10911;DHT22;5508;49.150;11.030;2022-09-01T14:52:08;21.40;51.70
10911;DHT22;5508;49.150;11.030;2022-09-01T14:55:09;21.40;53.50
10911;DHT22;5508;49.150;11.030;2022-09-01T14:58:10;21.30;53.10
10911;DHT22;5508;49.150;11.030;2022-09-01T15:01:10;21.40;51.90
10911;DHT22;5508;49.150;11.030;2022-09-01T15:04:11;21.40;52.10
10911;DHT22;5508;49.150;11.030;2022-09-01T15:07:12;21.40;50.70
10911;DHT22;5508;49.150;11.030;2022-09-01T15:10:16;21.20;49.50
10911;DHT22;5508;49.150;11.030;2022-09-01T15:13:17;21.00;51.60
10911;DHT22;5508;49.150;11.030;2022-09-01T15:16:22;21.00;49.70
10911;DHT22;5508;49.150;11.030;2022-09-01T15:19:24;20.80;52.60
10911;DHT22;5508;49.150;11.030;2022-09-01T15:22:25;20.80;51.00
10911;DHT22;5508;49.150;11.030;2022-09-01T15:25:25;20.80;49.60
10911;DHT22;5508;49.150;11.030;2022-09-01T15:28:26;20.70;53.10
10911;DHT22;5508;49.150;11.030;2022-09-01T15:31:28;20.70;54.40
10911;DHT22;5508;49.150;11.030;2022-09-01T15:34:31;20.80;53.00
10911;DHT22;5508;49.150;11.030;2022-09-01T15:37:32;20.90;54.30
10911;DHT22;5508;49.150;11.030;2022-09-01T15:40:33;21.00;50.10
10911;DHT22;5508;49.150;11.030;2022-09-01T15:43:34;21.10;49.70
10911;DHT22;5508;49.150;11.030;2022-09-01T15:46:36;21.00;51.40
10911;DHT22;5508;49.150;11.030;2022-09-01T15:49:38;21.20;52.20
10911;DHT22;5508;49.150;11.030;2022-09-01T15:52:59;21.40;52.10
10911;DHT22;5508;49.150;11.030;2022-09-01T15:56:06;21.30;50.90
10911;DHT22;5508;49.150;11.030;2022-09-01T15:59:08;21.40;47.60
10911;DHT22;5508;49.150;11.030;2022-09-01T16:02:09;21.40;46.80
10911;DHT22;5508;49.150;11.030;2022-09-01T16:05:10;21.50;47.10
10911;DHT22;5508;49.150;11.030;2022-09-01T16:08:11;21.40;47.60
10911;DHT22;5508;49.150;11.030;2022-09-01T16:11:12;21.30;49.50
10911;DHT22;5508;49.150;11.030;2022-09-01T16:14:12;21.30;47.60
10911;DHT22;5508;49.150;11.030;2022-09-01T16:17:22;21.30;51.40
10911;DHT22;5508;49.150;11.030;2022-09-01T16:20:33;21.20;48.10
10911;DHT22;5508;49.150;11.030;2022-09-01T16:23:42;21.20;48.50
10911;DHT22;5508;49.150;11.030;2022-09-01T16:26:46;21.10;47.30
10911;DHT22;5508;49.150;11.030;2022-09-01T16:29:54;21.00;47.50
10911;DHT22;5508;49.150;11.030;2022-09-01T16:33:02;20.90;48.40
10911;DHT22;5508;49.150;11.030;2022-09-01T16:39:37;20.50;49.00
10911;DHT22;5508;49.150;11.030;2022-09-01T16:42:45;20.20;49.60
10911;DHT22;5508;49.150;11.030;2022-09-01T16:46:10;20.00;51.00
10911;DHT22;5508;49.150;11.030;2022-09-01T16:52:28;19.70;52.30
10911;DHT22;5508;49.150;11.030;2022-09-01T16:55:41;19.60;51.60
10911;DHT22;5508;49.150;11.030;2022-09-01T16:58:58;19.60;53.30
10911;DHT22;5508;49.150;11.030;2022-09-01T17:02:22;19.50;54.80
10911;DHT22;5508;49.150;11.030;2022-09-01T17:05:30;19.30;53.60
10911;DHT22;5508;49.150;11.030;2022-09-01T17:08:41;19.30;56.20
10911;DHT22;5508;49.150;11.030;2022-09-01T17:12:11;19.20;54.50
10911;DHT22;5508;49.150;11.030;2022-09-01T17:15:19;19.20;54.90
10911;DHT22;5508;49.150;11.030;2022-09-01T17:18:43;19.10;57.00
10911;DHT22;5508;49.150;11.030;2022-09-01T17:21:47;19.00;55.20
10911;DHT22;5508;49.150;11.030;2022-09-01T17:24:58;19.00;57.00
10911;DHT22;5508;49.150;11.030;2022-09-01T17:28:08;18.90;55.60
10911;DHT22;5508;49.150;11.030;2022-09-01T17:31:35;18.90;58.50
10911;DHT22;5508;49.150;11.030;2022-09-01T17:35:02;18.80;56.40
10911;DHT22;5508;49.150;11.030;2022-09-01T17:38:22;18.80;57.60
10911;DHT22;5508;49.150;11.030;2022-09-01T17:41:39;18.70;55.60
10911;DHT22;5508;49.150;11.030;2022-09-01T17:44:50;18.70;56.40
10911;DHT22;5508;49.150;11.030;2022-09-01T17:48:10;18.60;56.80
10911;DHT22;5508;49.150;11.030;2022-09-01T17:54:59;18.50;60.20
10911;DHT22;5508;49.150;11.030;2022-09-01T18:01:47;18.30;61.00
10911;DHT22;5508;49.150;11.030;2022-09-01T18:08:20;18.20;60.00
10911;DHT22;5508;49.150;11.030;2022-09-01T18:11:39;18.10;60.30
10911;DHT22;5508;49.150;11.030;2022-09-01T18:14:53;18.00;61.90
10911;DHT22;5508;49.150;11.030;2022-09-01T18:18:52;18.00;61.70
10911;DHT22;5508;49.150;11.030;2022-09-01T18:21:52;17.90;62.80
10911;DHT22;5508;49.150;11.030;2022-09-01T18:24:57;17.80;61.40
10911;DHT22;5508;49.150;11.030;2022-09-01T18:27:59;17.80;63.30
10911;DHT22;5508;49.150;11.030;2022-09-01T18:31:56;17.80;61.40
10911;DHT22;5508;49.150;11.030;2022-09-01T18:34:36;17.70;62.50
10911;DHT22;5508;49.150;11.030;2022-09-01T18:44:31;17.60;65.10
10911;DHT22;5508;49.150;11.030;2022-09-01T18:47:43;17.50;64.80
10911;DHT22;5508;49.150;11.030;2022-09-01T18:51:17;17.40;65.10
10911;DHT22;5508;49.150;11.030;2022-09-01T18:57:37;17.20;66.20
10911;DHT22;5508;49.150;11.030;2022-09-01T19:00:46;17.10;65.90
10911;DHT22;5508;49.150;11.030;2022-09-01T19:04:19;17.00;67.60
10911;DHT22;5508;49.150;11.030;2022-09-01T19:07:58;17.00;67.50
10911;DHT22;5508;49.150;11.030;2022-09-01T19:11:07;16.90;68.80
10911;DHT22;5508;49.150;11.030;2022-09-01T19:14:41;16.70;69.80
10911;DHT22;5508;49.150;11.030;2022-09-01T19:18:11;16.70;68.50
10911;DHT22;5508;49.150;11.030;2022-09-01T19:21:27;16.50;68.90
10911;DHT22;5508;49.150;11.030;2022-09-01T19:24:37;16.40;71.20
10911;DHT22;5508;49.150;11.030;2022-09-01T19:27:39;16.30;71.10
10911;DHT22;5508;49.150;11.030;2022-09-01T19:30:45;16.20;71.70
10911;DHT22;5508;49.150;11.030;2022-09-01T19:33:54;16.10;72.40
10911;DHT22;5508;49.150;11.030;2022-09-01T19:36:58;15.90;72.70
10911;DHT22;5508;49.150;11.030;2022-09-01T19:39:59;15.80;73.80
10911;DHT22;5508;49.150;11.030;2022-09-01T19:43:10;15.70;75.80
10911;DHT22;5508;49.150;11.030;2022-09-01T19:46:38;15.70;76.60
10911;DHT22;5508;49.150;11.030;2022-09-01T19:56:12;15.30;77.40
10911;DHT22;5508;49.150;11.030;2022-09-01T19:59:27;15.20;77.60
10911;DHT22;5508;49.150;11.030;2022-09-01T20:02:39;15.10;78.20
10911;DHT22;5508;49.150;11.030;2022-09-01T20:05:44;15.00;79.60
10911;DHT22;5508;49.150;11.030;2022-09-01T20:09:11;15.00;78.60
10911;DHT22;5508;49.150;11.030;2022-09-01T20:15:38;14.80;78.70
10911;DHT22;5508;49.150;11.030;2022-09-01T20:19:13;14.80;78.30
10911;DHT22;5508;49.150;11.030;2022-09-01T20:25:26;14.70;80.80
10911;DHT22;5508;49.150;11.030;2022-09-01T20:28:49;14.50;80.30
10911;DHT22;5508;49.150;11.030;2022-09-01T20:31:56;14.50;80.50
10911;DHT22;5508;49.150;11.030;2022-09-01T20:35:05;14.40;80.20
10911;DHT22;5508;49.150;11.030;2022-09-01T20:38:35;14.30;80.50
10911;DHT22;5508;49.150;11.030;2022-09-01T20:41:54;14.20;81.50
10911;DHT22;5508;49.150;11.030;2022-09-01T20:44:59;14.10;80.70
10911;DHT22;5508;49.150;11.030;2022-09-01T20:48:06;14.10;82.20
10911;DHT22;5508;49.150;11.030;2022-09-01T20:54:45;14.10;84.20
10911;DHT22;5508;49.150;11.030;2022-09-01T20:57:56;14.00;82.90
10911;DHT22;5508;49.150;11.030;2022-09-01T21:01:11;14.00;83.40
10911;DHT22;5508;49.150;11.030;2022-09-01T21:07:30;13.80;82.70
10911;DHT22;5508;49.150;11.030;2022-09-01T21:17:24;13.60;84.60
10911;DHT22;5508;49.150;11.030;2022-09-01T21:21:01;13.50;84.50